Time;durP1;ratioP1;P1;durP2;ratioP2;P2;SDS_P1;SDS_P2;PMS_P1;PMS_P2;Temp;Humidity;BMP_temperature;BMP_pressure;BME280_temperature;BME280_humidity;BME280_pressure;Samples;Min_cycle;Max_cycle;Signal;HPM_P1;HPM_P2
2023/08/05 00:00:14;;;;;;;9.63;2.00;;;43.20;16.40;;;;;;5059037;28;20039;-67
2023/08/05 00:02:40;;;;;;;17.77;3.03;;;43.20;16.50;;;;;;5050382;28;20571;-66
2023/08/05 00:05:08;;;;;;;9.35;2.47;;;43.20;17.40;;;;;;5052318;28;20052;-66
2023/08/05 00:07:34;;;;;;;6.97;2.25;;;43.10;18.30;;;;;;5056594;28;20519;-67
2023/08/05 00:10:01;;;;;;;11.45;2.92;;;43.10;18.40;;;;;;5058457;28;20434;-65
2023/08/05 00:12:27;;;;;;;8.35;2.50;;;43.00;18.30;;;;;;5060326;28;20057;-64
2023/08/05 00:14:53;;;;;;;9.27;2.50;;;42.80;18.80;;;;;;5058734;28;20531;-67
2023/08/05 00:17:20;;;;;;;15.90;2.90;;;42.80;18.30;;;;;;5054385;28;20075;-66
2023/08/05 00:19:46;;;;;;;12.93;2.95;;;42.70;18.20;;;;;;5055588;28;20048;-64
2023/08/05 00:22:13;;;;;;;8.98;2.50;;;42.60;18.50;;;;;;5052516;28;20393;-66
2023/08/05 00:24:40;;;;;;;10.70;2.95;;;42.60;18.40;;;;;;5061228;28;20081;-66
2023/08/05 00:27:07;;;;;;;12.85;2.67;;;42.60;18.00;;;;;;5057926;28;20055;-67
2023/08/05 00:29:33;;;;;;;14.55;2.67;;;42.40;18.40;;;;;;5064576;28;20059;-67
2023/08/05 00:31:59;;;;;;;9.02;2.60;;;42.40;18.60;;;;;;5055191;28;20058;-65
2023/08/05 00:34:26;;;;;;;12.40;2.50;;;42.30;17.90;;;;;;5052257;28;20153;-66
2023/08/05 00:36:52;;;;;;;15.15;2.97;;;42.30;18.30;;;;;;5051968;28;20067;-67
2023/08/05 00:39:19;;;;;;;11.45;2.42;;;42.20;17.90;;;;;;5054854;28;20061;-65
2023/08/05 00:41:45;;;;;;;8.07;2.28;;;42.10;18.30;;;;;;5055628;28;20057;-66
2023/08/05 00:44:11;;;;;;;12.57;2.65;;;42.10;18.30;;;;;;5057966;28;21332;-65
2023/08/05 00:46:38;;;;;;;11.60;2.70;;;42.00;18.60;;;;;;5057306;28;20542;-67
2023/08/05 00:49:04;;;;;;;9.75;2.70;;;41.80;17.80;;;;;;5050902;28;20063;-66
2023/08/05 00:51:31;;;;;;;9.15;2.70;;;41.70;19.10;;;;;;5059970;28;20068;-68
2023/08/05 00:53:58;;;;;;;22.50;2.67;;;41.60;18.30;;;;;;5053013;28;20058;-65
2023/08/05 00:56:24;;;;;;;21.02;3.05;;;41.60;18.90;;;;;;5053189;28;20064;-68
2023/08/05 00:58:50;;;;;;;12.18;2.53;;;41.50;19.80;;;;;;5054243;28;20055;-66
2023/08/05 01:01:17;;;;;;;14.98;3.20;;;41.40;18.40;;;;;;5055704;28;20574;-67
2023/08/05 01:03:44;;;;;;;7.80;2.35;;;41.40;18.70;;;;;;5053040;28;20067;-67
2023/08/05 01:06:12;;;;;;;11.20;2.58;;;41.30;18.90;;;;;;5051848;28;20068;-66
2023/08/05 01:08:38;;;;;;;14.57;2.65;;;41.30;19.90;;;;;;5053427;28;20106;-66
2023/08/05 01:11:05;;;;;;;11.18;2.55;;;41.30;19.50;;;;;;5057494;28;20143;-65
2023/08/05 01:13:32;;;;;;;8.75;2.80;;;41.20;18.60;;;;;;5051012;28;20408;-66
2023/08/05 01:15:58;;;;;;;11.38;2.95;;;41.20;19.60;;;;;;5053982;28;20065;-66
2023/08/05 01:18:26;;;;;;;11.75;2.90;;;41.10;20.00;;;;;;5052502;28;20045;-67
2023/08/05 01:20:55;;;;;;;13.10;2.67;;;41.00;19.70;;;;;;5053015;28;20109;-67
2023/08/05 01:23:29;;;;;;;8.93;2.22;;;40.90;19.40;;;;;;5055626;28;20048;-65
2023/08/05 01:25:55;;;;;;;10.43;2.35;;;40.90;18.90;;;;;;5054166;28;20214;-66
2023/08/05 01:28:22;;;;;;;21.45;3.38;;;40.80;19.70;;;;;;5053271;28;20089;-66
2023/08/05 01:30:50;;;;;;;25.25;2.90;;;40.80;19.80;;;;;;5056193;28;20049;-65
2023/08/05 01:33:18;;;;;;;18.63;3.42;;;40.70;19.70;;;;;;5053194;28;20070;-66
2023/08/05 01:35:51;;;;;;;14.63;3.38;;;40.60;20.10;;;;;;5051461;28;20058;-65
2023/08/05 01:38:17;;;;;;;56.63;5.38;;;40.60;20.70;;;;;;5052365;28;20066;-65
2023/08/05 01:40:45;;;;;;;79.82;6.78;;;40.70;20.90;;;;;;5051831;28;20081;-64
2023/08/05 01:43:12;;;;;;;48.53;4.70;;;40.60;21.40;;;;;;5052563;28;20066;-66
2023/08/05 01:45:39;;;;;;;31.60;4.10;;;40.70;20.00;;;;;;5049863;28;20535;-65
2023/08/05 01:48:05;;;;;;;27.90;4.10;;;41.40;19.90;;;;;;5058374;28;20049;-68
2023/08/05 01:50:33;;;;;;;23.73;3.10;;;41.80;19.50;;;;;;5058016;28;20431;-66
2023/08/05 01:52:59;;;;;;;20.23;3.45;;;41.60;19.70;;;;;;5052337;28;20080;-66
2023/08/05 01:55:25;;;;;;;39.67;5.05;;;41.30;20.30;;;;;;5053199;28;21070;-67
2023/08/05 01:57:52;;;;;;;21.65;3.55;;;41.20;20.40;;;;;;5055615;28;20153;-65
2023/08/05 02:00:21;;;;;;;15.77;3.20;;;41.30;19.90;;;;;;5052217;28;20449;-68
2023/08/05 02:02:47;;;;;;;73.07;7.72;;;42.10;19.60;;;;;;5051147;28;20043;-64
2023/08/05 02:05:14;;;;;;;10.60;2.78;;;42.20;19.40;;;;;;5057278;28;20447;-67
2023/08/05 02:07:40;;;;;;;26.05;3.88;;;41.70;19.60;;;;;;5055414;28;20110;-66
2023/08/05 02:10:07;;;;;;;19.55;3.78;;;41.10;19.90;;;;;;5053488;28;20172;-69
2023/08/05 02:12:33;;;;;;;55.92;4.93;;;40.70;20.10;;;;;;5053022;28;20528;-67
2023/08/05 02:15:00;;;;;;;34.78;5.43;;;40.40;19.80;;;;;;5054522;28;20407;-59
2023/08/05 02:17:26;;;;;;;118.10;11.38;;;40.10;20.30;;;;;;5057564;28;20064;-61
2023/08/05 02:19:52;;;;;;;16.98;3.65;;;39.80;21.30;;;;;;5049716;28;20456;-62
2023/08/05 02:22:19;;;;;;;34.78;4.43;;;39.70;21.20;;;;;;5054100;28;20068;-62
2023/08/05 02:24:45;;;;;;;12.77;2.90;;;39.50;21.90;;;;;;5054281;28;20067;-60
2023/08/05 02:27:12;;;;;;;16.45;3.22;;;39.30;21.90;;;;;;5051484;28;20070;-64
2023/08/05 02:29:39;;;;;;;8.48;3.00;;;39.10;21.20;;;;;;5051133;28;20065;-62
2023/08/05 02:32:05;;;;;;;13.88;3.05;;;39.00;21.80;;;;;;5054309;28;20542;-63
2023/08/05 02:34:32;;;;;;;19.13;3.30;;;38.80;22.20;;;;;;5049411;28;20196;-60
2023/08/05 02:36:58;;;;;;;11.75;3.50;;;38.70;21.90;;;;;;5050457;28;20077;-62
2023/08/05 02:39:25;;;;;;;10.23;3.78;;;38.60;21.80;;;;;;5052319;28;20071;-62
2023/08/05 02:41:52;;;;;;;19.55;3.40;;;38.50;22.40;;;;;;5048559;28;20079;-63
2023/08/05 02:44:18;;;;;;;14.63;3.78;;;38.40;22.30;;;;;;5053020;28;20152;-63
2023/08/05 02:46:44;;;;;;;14.95;3.20;;;38.30;22.90;;;;;;5053357;28;20077;-63
2023/08/05 02:49:11;;;;;;;21.05;3.67;;;38.10;23.00;;;;;;5055494;28;20165;-62
2023/08/05 02:51:37;;;;;;;11.98;3.42;;;37.90;22.60;;;;;;5051172;28;20077;-63
2023/08/05 02:54:04;;;;;;;20.95;3.95;;;37.80;23.30;;;;;;5050920;28;20082;-62
2023/08/05 02:56:33;;;;;;;18.35;4.03;;;37.60;23.00;;;;;;5050063;28;20087;-64
2023/08/05 02:59:00;;;;;;;23.90;4.75;;;37.60;23.90;;;;;;5050344;28;20415;-61
2023/08/05 03:01:26;;;;;;;16.40;5.00;;;37.50;23.20;;;;;;5055230;28;20082;-61
2023/08/05 03:03:53;;;;;;;14.35;5.30;;;37.30;23.20;;;;;;5050198;28;20090;-63
2023/08/05 03:06:19;;;;;;;23.73;5.05;;;37.20;23.80;;;;;;5052042;28;20466;-59
2023/08/05 03:08:45;;;;;;;21.10;5.38;;;37.00;23.60;;;;;;5051347;28;20074;-61
2023/08/05 03:11:12;;;;;;;20.55;4.82;;;36.90;23.70;;;;;;5051744;28;20096;-60
2023/08/05 03:13:38;;;;;;;23.77;4.47;;;36.80;23.80;;;;;;5050945;28;20084;-61
2023/08/05 03:16:10;;;;;;;26.17;4.65;;;36.80;24.20;;;;;;5052819;28;20120;-61
2023/08/05 03:18:37;;;;;;;19.60;3.85;;;36.70;24.00;;;;;;5053866;28;20162;-61
2023/08/05 03:21:04;;;;;;;14.90;4.43;;;36.60;24.40;;;;;;5050317;28;20142;-60
2023/08/05 03:23:30;;;;;;;18.15;4.80;;;36.50;24.40;;;;;;5052334;28;20076;-60
2023/08/05 03:25:57;;;;;;;15.10;4.38;;;36.40;24.90;;;;;;5054577;28;20086;-63
2023/08/05 03:28:23;;;;;;;11.93;4.57;;;36.30;24.30;;;;;;5056644;28;20086;-61
2023/08/05 03:30:50;;;;;;;16.83;5.25;;;36.30;24.70;;;;;;5061138;28;20090;-61
2023/08/05 03:33:16;;;;;;;88.00;10.60;;;36.20;24.70;;;;;;5060304;28;20080;-59
2023/08/05 03:35:43;;;;;;;37.63;8.10;;;36.60;24.90;;;;;;5055656;28;20541;-61
2023/08/05 03:38:09;;;;;;;55.78;10.20;;;36.70;24.90;;;;;;5053345;28;20625;-59
2023/08/05 03:40:36;;;;;;;30.25;7.57;;;36.70;25.30;;;;;;5056620;28;20828;-61
2023/08/05 03:43:03;;;;;;;27.30;6.63;;;36.70;25.10;;;;;;5064186;28;20072;-60
2023/08/05 03:45:29;;;;;;;25.98;6.18;;;36.60;25.10;;;;;;5058925;28;20077;-59
2023/08/05 03:47:56;;;;;;;24.08;7.10;;;36.60;25.30;;;;;;5062904;28;20602;-61
2023/08/05 03:50:22;;;;;;;31.17;9.38;;;36.50;25.00;;;;;;5055399;28;20453;-61
2023/08/05 03:52:49;;;;;;;30.63;9.82;;;36.50;25.60;;;;;;5056892;28;20083;-60
2023/08/05 03:55:16;;;;;;;31.80;8.90;;;36.50;26.30;;;;;;5062386;28;20135;-60
2023/08/05 03:57:42;;;;;;;35.75;7.45;;;36.50;27.30;;;;;;5057273;28;20100;-61
2023/08/05 04:00:09;;;;;;;36.72;7.32;;;36.50;26.30;;;;;;5059726;28;20111;-60
2023/08/05 04:02:36;;;;;;;31.70;7.43;;;36.40;26.10;;;;;;5066440;28;20074;-62
2023/08/05 04:05:06;;;;;;;25.92;7.05;;;36.30;26.30;;;;;;5059050;28;20099;-60
2023/08/05 04:07:32;;;;;;;30.50;7.75;;;36.20;26.30;;;;;;5061787;28;20599;-58
2023/08/05 04:09:58;;;;;;;27.65;7.70;;;36.10;26.40;;;;;;5055401;28;20457;-61
2023/08/05 04:12:25;;;;;;;35.83;8.35;;;36.20;26.90;;;;;;5063667;28;20076;-61
2023/08/05 04:14:53;;;;;;;34.10;7.75;;;36.10;26.80;;;;;;5060037;28;20468;-61
2023/08/05 04:17:21;;;;;;;41.08;7.85;;;36.10;26.70;;;;;;5057292;28;20178;-62
2023/08/05 04:19:50;;;;;;;41.97;8.38;;;36.00;26.60;;;;;;5054631;28;20104;-59
2023/08/05 04:22:20;;;;;;;36.35;8.75;;;35.80;26.50;;;;;;5057364;28;20081;-60
2023/08/05 04:24:46;;;;;;;44.35;7.88;;;35.80;27.50;;;;;;5053043;28;20083;-60
2023/08/05 04:27:13;;;;;;;54.85;8.85;;;35.70;27.30;;;;;;5064831;28;20163;-61
2023/08/05 04:29:39;;;;;;;49.95;9.80;;;35.60;27.60;;;;;;5064359;28;20084;-60
2023/08/05 04:32:06;;;;;;;43.90;9.60;;;35.60;27.50;;;;;;5063632;28;20537;-61
2023/08/05 04:34:36;;;;;;;40.42;10.43;;;35.50;27.60;;;;;;5061713;28;20084;-61
2023/08/05 04:37:20;;;;;;;51.22;9.35;;;35.40;27.70;;;;;;5057027;28;20092;-60
2023/08/05 04:39:47;;;;;;;38.63;10.45;;;35.30;27.80;;;;;;5058339;28;20068;-61
2023/08/05 04:42:14;;;;;;;52.45;10.40;;;35.20;28.10;;;;;;5056141;28;20080;-61
2023/08/05 04:44:41;;;;;;;30.42;9.32;;;35.10;28.30;;;;;;5055265;28;20130;-59
2023/08/05 04:47:11;;;;;;;48.53;11.05;;;35.00;28.60;;;;;;5054998;28;20108;-62
2023/08/05 04:49:42;;;;;;;41.88;10.35;;;34.90;29.10;;;;;;5056543;28;20121;-60
2023/08/05 04:52:10;;;;;;;43.40;8.75;;;34.90;29.60;;;;;;5052666;28;20090;-61
2023/08/05 04:54:40;;;;;;;36.60;8.90;;;34.80;30.00;;;;;;5052579;28;20091;-60
2023/08/05 04:57:07;;;;;;;37.45;8.57;;;34.70;30.50;;;;;;5055639;28;20092;-61
2023/08/05 04:59:34;;;;;;;39.83;8.27;;;34.60;30.80;;;;;;5056145;28;20171;-59
2023/08/05 05:02:00;;;;;;;47.38;9.48;;;34.50;31.20;;;;;;5060671;28;20171;-62
2023/08/05 05:04:26;;;;;;;40.38;8.52;;;34.40;31.00;;;;;;5060636;28;20137;-59
2023/08/05 05:06:53;;;;;;;44.38;9.13;;;34.40;31.10;;;;;;5057429;28;20111;-61
2023/08/05 05:09:19;;;;;;;47.30;10.45;;;34.30;31.70;;;;;;5056991;28;20104;-61
2023/08/05 05:11:46;;;;;;;55.13;10.10;;;34.20;31.30;;;;;;5063390;28;20146;-60
2023/08/05 05:14:12;;;;;;;60.05;9.80;;;34.10;30.70;;;;;;5061021;28;20187;-61
2023/08/05 05:16:38;;;;;;;60.53;11.63;;;34.10;30.30;;;;;;5056518;28;20561;-61
2023/08/05 05:19:05;;;;;;;55.97;10.27;;;34.00;30.80;;;;;;5056792;28;20076;-61
2023/08/05 05:21:31;;;;;;;59.25;12.38;;;34.00;30.00;;;;;;5058510;28;20087;-60
2023/08/05 05:23:58;;;;;;;77.18;12.43;;;34.00;31.10;;;;;;5056845;28;20449;-61
2023/08/05 05:26:25;;;;;;;54.78;10.90;;;33.90;30.40;;;;;;5055826;28;20103;-62
2023/08/05 05:28:51;;;;;;;60.97;12.93;;;33.90;31.60;;;;;;5059022;28;20091;-59
2023/08/05 05:31:17;;;;;;;67.70;13.40;;;33.80;32.20;;;;;;5060837;28;20425;-62
2023/08/05 05:33:47;;;;;;;65.43;12.63;;;33.90;30.80;;;;;;5058640;28;20179;-61
2023/08/05 05:36:14;;;;;;;80.63;13.95;;;33.80;30.00;;;;;;5060558;28;20158;-61
2023/08/05 05:38:40;;;;;;;77.45;13.88;;;33.70;30.10;;;;;;5055707;28;20099;-60
2023/08/05 05:41:07;;;;;;;78.05;13.88;;;33.70;29.80;;;;;;5055988;28;20084;-60
2023/08/05 05:43:35;;;;;;;79.07;15.13;;;33.70;31.50;;;;;;5058894;28;20597;-59
2023/08/05 05:46:02;;;;;;;84.55;15.05;;;33.70;31.70;;;;;;5055927;28;20092;-61
2023/08/05 05:48:29;;;;;;;77.38;15.07;;;33.60;31.40;;;;;;5053770;28;20555;-60
2023/08/05 05:50:55;;;;;;;84.20;14.57;;;33.50;30.30;;;;;;5060500;28;20107;-60
2023/08/05 05:53:22;;;;;;;83.65;14.52;;;33.50;30.00;;;;;;5057107;28;20087;-61
2023/08/05 05:55:54;;;;;;;78.78;14.55;;;33.50;30.80;;;;;;5055234;28;20791;-61
2023/08/05 05:58:20;;;;;;;90.05;15.27;;;33.40;30.30;;;;;;5053762;28;20163;-60
2023/08/05 06:00:47;;;;;;;73.10;15.07;;;33.40;30.00;;;;;;5058229;28;20084;-61
2023/08/05 06:03:13;;;;;;;63.78;14.57;;;33.30;31.10;;;;;;5056471;28;20122;-61
2023/08/05 06:05:40;;;;;;;77.43;14.10;;;33.30;31.50;;;;;;5061471;28;20364;-60
2023/08/05 06:08:07;;;;;;;75.13;14.35;;;33.20;31.20;;;;;;5055857;28;20086;-60
2023/08/05 06:10:38;;;;;;;65.25;13.40;;;33.20;30.80;;;;;;5061686;28;20109;-61
2023/08/05 06:13:05;;;;;;;69.65;14.32;;;33.10;31.10;;;;;;5054712;28;20089;-61
2023/08/05 06:15:31;;;;;;;65.13;14.63;;;33.10;32.00;;;;;;5052075;28;20088;-60
2023/08/05 06:17:58;;;;;;;59.70;14.07;;;33.00;32.20;;;;;;5053104;28;20162;-61
2023/08/05 06:20:24;;;;;;;70.40;14.93;;;33.00;31.40;;;;;;5058788;28;20108;-61
2023/08/05 06:22:50;;;;;;;67.78;13.93;;;33.00;31.70;;;;;;5059952;28;20800;-60
2023/08/05 06:25:17;;;;;;;75.97;14.45;;;32.90;32.00;;;;;;5057005;28;20092;-60
2023/08/05 06:27:43;;;;;;;62.50;14.18;;;32.90;31.80;;;;;;5058337;28;20080;-60
2023/08/05 06:30:10;;;;;;;62.55;14.13;;;32.80;31.90;;;;;;5054386;28;20541;-61
2023/08/05 06:32:36;;;;;;;60.65;13.95;;;32.80;32.00;;;;;;5057592;28;20079;-62
2023/08/05 06:35:04;;;;;;;78.57;13.73;;;32.70;32.80;;;;;;5060048;28;20082;-61
2023/08/05 06:37:30;;;;;;;56.50;13.20;;;32.70;32.60;;;;;;5054564;28;20149;-60
2023/08/05 06:39:56;;;;;;;53.90;12.77;;;32.60;31.80;;;;;;5059898;28;20520;-63
2023/08/05 06:42:24;;;;;;;62.40;15.45;;;32.60;33.50;;;;;;5059158;28;20096;-61
2023/08/05 06:44:50;;;;;;;57.85;14.35;;;32.60;33.70;;;;;;5059037;28;20087;-60
2023/08/05 06:47:17;;;;;;;58.72;13.63;;;32.50;33.60;;;;;;5057363;28;20076;-61
2023/08/05 06:49:43;;;;;;;53.53;13.43;;;32.50;34.40;;;;;;5057315;28;20104;-59
2023/08/05 06:52:10;;;;;;;50.40;13.02;;;32.40;33.90;;;;;;5053504;28;20168;-60
2023/08/05 06:54:36;;;;;;;47.38;13.20;;;32.30;34.30;;;;;;5057293;28;20084;-62
2023/08/05 06:57:03;;;;;;;54.63;12.98;;;32.30;32.90;;;;;;5057067;28;20104;-61
2023/08/05 06:59:29;;;;;;;55.97;12.82;;;32.30;33.20;;;;;;5052992;28;20115;-59
2023/08/05 07:01:55;;;;;;;44.55;13.20;;;32.30;33.30;;;;;;5056200;28;20079;-62
2023/08/05 07:04:22;;;;;;;51.53;12.75;;;32.20;33.60;;;;;;5057258;28;20088;-59
2023/08/05 07:06:48;;;;;;;44.47;11.40;;;32.20;33.40;;;;;;5058784;28;20073;-61
2023/08/05 07:09:15;;;;;;;47.08;11.20;;;32.10;34.50;;;;;;5051965;28;20112;-60
2023/08/05 07:11:41;;;;;;;38.80;10.05;;;32.00;35.50;;;;;;5049812;28;20160;-60
2023/08/05 07:14:07;;;;;;;51.63;10.98;;;31.90;34.70;;;;;;5050452;28;20488;-60
2023/08/05 07:16:34;;;;;;;43.47;10.15;;;31.90;35.50;;;;;;5052622;28;20095;-60
2023/08/05 07:19:00;;;;;;;40.60;10.02;;;31.80;35.40;;;;;;5058364;28;20127;-60
2023/08/05 07:21:27;;;;;;;65.75;10.65;;;31.80;35.30;;;;;;5055105;28;20150;-61
2023/08/05 07:23:53;;;;;;;44.20;8.90;;;32.50;35.10;;;;;;5057352;28;20080;-66
2023/08/05 07:26:19;;;;;;;35.08;8.48;;;32.80;34.30;;;;;;5062172;28;20107;-65
2023/08/05 07:28:46;;;;;;;38.80;7.70;;;33.10;34.20;;;;;;5060289;28;20171;-64
2023/08/05 07:31:12;;;;;;;27.50;7.68;;;33.20;34.60;;;;;;5067469;28;20166;-65
2023/08/05 07:33:41;;;;;;;28.63;7.43;;;33.10;33.90;;;;;;5060840;28;20576;-66
2023/08/05 07:36:12;;;;;;;30.83;6.80;;;33.30;34.40;;;;;;5060442;28;20102;-63
2023/08/05 07:38:40;;;;;;;26.75;7.18;;;33.40;33.00;;;;;;5059172;28;20177;-66
2023/08/05 07:41:07;;;;;;;28.50;6.85;;;33.40;33.50;;;;;;5060978;28;20593;-64
2023/08/05 07:43:36;;;;;;;26.38;8.45;;;33.40;35.00;;;;;;5062289;28;20159;-65
2023/08/05 07:46:03;;;;;;;23.00;8.73;;;33.40;32.70;;;;;;5053616;28;20092;-64
2023/08/05 07:48:37;;;;;;;31.65;8.85;;;33.10;32.40;;;;;;5056942;28;20647;-66
2023/08/05 07:51:06;;;;;;;29.52;8.70;;;33.20;33.10;;;;;;5055845;28;20460;-64
2023/08/05 07:53:35;;;;;;;35.15;7.55;;;33.10;35.00;;;;;;5054817;28;20632;-64
2023/08/05 07:56:14;;;;;;;32.50;8.55;;;32.80;34.60;;;;;;5058096;28;20114;-65
2023/08/05 07:58:47;;;;;;;23.73;7.47;;;32.80;34.10;;;;;;5060171;28;20131;-64
2023/08/05 08:01:24;;;;;;;28.90;8.50;;;32.80;35.60;;;;;;5061163;28;20099;-64
2023/08/05 08:03:53;;;;;;;26.23;7.90;;;32.60;35.50;;;;;;5055381;28;20166;-64
2023/08/05 08:06:20;;;;;;;36.55;8.38;;;32.50;35.20;;;;;;5053103;28;20934;-64
2023/08/05 08:08:47;;;;;;;36.92;9.23;;;32.60;34.70;;;;;;5053748;28;20085;-64
2023/08/05 08:11:14;;;;;;;30.77;8.57;;;32.60;35.20;;;;;;5055933;28;20099;-64
2023/08/05 08:13:41;;;;;;;39.40;8.50;;;32.60;35.50;;;;;;5055842;28;20080;-63
2023/08/05 08:16:07;;;;;;;34.90;9.23;;;32.60;34.90;;;;;;5062614;28;20075;-63
2023/08/05 08:18:34;;;;;;;29.33;9.23;;;32.40;35.60;;;;;;5061453;28;20167;-63
2023/08/05 08:21:00;;;;;;;37.15;8.25;;;32.50;35.30;;;;;;5054157;28;20088;-65
2023/08/05 08:23:27;;;;;;;30.95;9.07;;;32.40;36.10;;;;;;5058943;28;20112;-63
2023/08/05 08:25:56;;;;;;;35.88;8.85;;;32.40;36.80;;;;;;5056817;28;20081;-64
2023/08/05 08:28:22;;;;;;;38.50;8.95;;;32.30;35.40;;;;;;5055939;28;20081;-65
2023/08/05 08:30:54;;;;;;;38.72;9.55;;;32.20;36.30;;;;;;5062746;28;20091;-63
2023/08/05 08:33:21;;;;;;;32.30;9.27;;;32.20;36.20;;;;;;5056155;28;20454;-64
2023/08/05 08:35:49;;;;;;;32.70;9.48;;;32.20;35.50;;;;;;5058982;28;20601;-64
2023/08/05 08:38:16;;;;;;;33.03;10.35;;;32.00;36.00;;;;;;5057772;28;20158;-65
2023/08/05 08:40:50;;;;;;;45.95;10.55;;;31.90;37.00;;;;;;5058534;28;20542;-65
2023/08/05 08:43:21;;;;;;;48.97;10.52;;;31.90;36.30;;;;;;5061376;28;20602;-63
2023/08/05 08:45:51;;;;;;;37.65;11.20;;;31.90;36.40;;;;;;5061234;28;20083;-64
2023/08/05 08:48:17;;;;;;;51.60;13.43;;;31.80;36.40;;;;;;5057566;28;20141;-65
2023/08/05 08:50:46;;;;;;;46.97;14.40;;;31.80;36.50;;;;;;5057521;28;20076;-64
2023/08/05 08:53:15;;;;;;;48.40;17.83;;;31.90;36.70;;;;;;5051519;28;20088;-67
2023/08/05 08:55:43;;;;;;;41.55;16.55;;;31.80;36.60;;;;;;5055066;28;20096;-64
2023/08/05 08:58:13;;;;;;;42.33;14.98;;;31.70;38.90;;;;;;5060797;28;20109;-66
2023/08/05 09:00:40;;;;;;;67.60;16.77;;;31.70;37.90;;;;;;5060983;28;20143;-65
2023/08/05 09:03:07;;;;;;;47.97;17.55;;;31.70;37.70;;;;;;5054696;28;20084;-63
2023/08/05 09:05:56;;;;;;;56.20;17.45;;;31.70;37.40;;;;;;5055896;28;20556;-64
2023/08/05 09:08:23;;;;;;;52.47;18.27;;;31.60;37.80;;;;;;5050758;28;20154;-65
2023/08/05 09:10:50;;;;;;;58.85;16.88;;;31.50;38.60;;;;;;5060146;28;20565;-65
2023/08/05 09:13:17;;;;;;;49.33;15.95;;;31.50;37.80;;;;;;5055120;28;20095;-63
2023/08/05 09:15:46;;;;;;;62.10;17.40;;;31.50;38.30;;;;;;5052734;28;20124;-67
2023/08/05 09:18:12;;;;;;;59.47;15.40;;;31.30;39.50;;;;;;5058869;28;20092;-65
2023/08/05 09:20:39;;;;;;;63.55;15.10;;;31.10;41.20;;;;;;5054885;28;20081;-65
2023/08/05 09:23:07;;;;;;;50.03;15.38;;;31.00;40.80;;;;;;5055387;28;20190;-64
2023/08/05 09:25:39;;;;;;;60.42;16.60;;;31.00;39.50;;;;;;5057591;28;20113;-64
2023/08/05 09:28:06;;;;;;;56.33;15.98;;;31.00;39.00;;;;;;5060847;28;20125;-65
2023/08/05 09:30:33;;;;;;;58.20;15.45;;;30.90;40.70;;;;;;5058219;28;20119;-65
2023/08/05 09:33:00;;;;;;;54.13;15.60;;;30.60;39.70;;;;;;5055187;28;20081;-64
2023/08/05 09:35:26;;;;;;;63.53;17.17;;;30.60;42.20;;;;;;5060521;28;21744;-65
2023/08/05 09:37:54;;;;;;;51.35;15.07;;;30.60;40.20;;;;;;5059603;28;20115;-63
2023/08/05 09:40:28;;;;;;;72.47;16.70;;;30.60;41.60;;;;;;5058278;28;20076;-65
2023/08/05 09:43:02;;;;;;;55.85;15.98;;;30.50;40.20;;;;;;5060750;28;20560;-64
2023/08/05 09:45:32;;;;;;;61.60;16.27;;;30.50;40.70;;;;;;5050078;28;20081;-64
2023/08/05 09:48:04;;;;;;;43.30;15.00;;;30.50;41.60;;;;;;5057402;28;20196;-65
2023/08/05 09:50:31;;;;;;;58.03;17.13;;;30.50;42.60;;;;;;5053017;28;20446;-64
2023/08/05 09:53:01;;;;;;;53.75;16.45;;;30.40;41.20;;;;;;5055215;28;20072;-65
2023/08/05 09:55:28;;;;;;;70.85;16.98;;;30.40;41.90;;;;;;5053324;28;20084;-65
2023/08/05 09:57:56;;;;;;;55.58;16.00;;;30.40;41.50;;;;;;5051093;28;20092;-65
2023/08/05 10:00:23;;;;;;;70.55;15.85;;;30.40;41.80;;;;;;5052274;28;20089;-64
2023/08/05 10:02:50;;;;;;;57.63;15.13;;;30.40;41.40;;;;;;5065310;28;20105;-64
2023/08/05 10:05:17;;;;;;;66.80;16.08;;;30.40;41.60;;;;;;5055578;28;20076;-65
2023/08/05 10:07:44;;;;;;;64.93;14.80;;;30.40;42.70;;;;;;5062384;28;20125;-64
2023/08/05 10:10:12;;;;;;;58.35;14.77;;;30.30;42.00;;;;;;5059837;28;20109;-66
2023/08/05 10:13:00;;;;;;;58.42;14.95;;;30.20;43.50;;;;;;5055624;28;20085;-64
2023/08/05 10:15:35;;;;;;;67.07;16.40;;;30.10;42.80;;;;;;5059831;28;20085;-64
2023/08/05 10:18:02;;;;;;;53.08;13.95;;;30.10;43.90;;;;;;5057183;28;20122;-63
2023/08/05 10:20:35;;;;;;;65.53;16.05;;;30.10;44.80;;;;;;5055617;28;20491;-64
2023/08/05 10:23:05;;;;;;;57.58;15.05;;;30.00;43.90;;;;;;5057002;28;20422;-63
2023/08/05 10:25:41;;;;;;;55.85;14.07;;;30.00;44.30;;;;;;5054647;28;20172;-63
2023/08/05 10:28:09;;;;;;;66.10;15.00;;;29.90;43.80;;;;;;5056110;28;20085;-64
2023/08/05 10:30:42;;;;;;;50.92;15.38;;;29.80;44.70;;;;;;5055777;28;20103;-64
2023/08/05 10:33:09;;;;;;;59.13;15.63;;;29.80;45.50;;;;;;5054248;28;20093;-65
2023/08/05 10:35:42;;;;;;;63.67;17.17;;;29.70;44.00;;;;;;5050905;28;20223;-65
2023/08/05 10:38:22;;;;;;;63.65;16.90;;;29.70;43.90;;;;;;5057693;28;20208;-65
2023/08/05 10:40:52;;;;;;;76.07;16.52;;;29.60;44.70;;;;;;5059649;28;20115;-65
2023/08/05 10:43:34;;;;;;;60.55;16.38;;;29.60;44.10;;;;;;5056279;28;20163;-66
2023/08/05 10:46:02;;;;;;;71.00;17.33;;;29.60;45.60;;;;;;5054567;28;21619;-64
2023/08/05 10:48:30;;;;;;;68.50;17.67;;;29.50;45.70;;;;;;5055898;28;20092;-65
2023/08/05 10:50:58;;;;;;;74.57;17.83;;;29.60;46.50;;;;;;5061716;28;20081;-66
2023/08/05 10:53:24;;;;;;;66.72;16.52;;;29.50;45.90;;;;;;5059263;28;20558;-65
2023/08/05 10:55:59;;;;;;;82.88;16.02;;;29.60;46.20;;;;;;5054212;28;20093;-64
2023/08/05 10:58:30;;;;;;;69.15;16.70;;;29.70;46.80;;;;;;5057219;28;20218;-64
2023/08/05 11:01:05;;;;;;;80.85;17.40;;;29.60;47.60;;;;;;5055805;28;20082;-64
2023/08/05 11:03:49;;;;;;;74.65;17.77;;;29.60;47.60;;;;;;5051040;28;20511;-64
2023/08/05 11:06:22;;;;;;;77.78;17.73;;;29.50;48.00;;;;;;5057290;28;20119;-67
2023/08/05 11:08:48;;;;;;;78.05;20.20;;;29.60;49.50;;;;;;5056137;28;20072;-66
2023/08/05 11:11:15;;;;;;;74.07;18.98;;;29.50;49.80;;;;;;5060986;28;20162;-66
2023/08/05 11:13:44;;;;;;;63.03;18.77;;;29.40;51.20;;;;;;5054752;28;20116;-68
2023/08/05 11:16:16;;;;;;;68.32;17.88;;;29.30;52.50;;;;;;5055020;28;20138;-64
2023/08/05 11:18:45;;;;;;;62.83;18.40;;;29.30;53.30;;;;;;5052854;28;20077;-64
2023/08/05 11:21:14;;;;;;;60.40;19.25;;;29.30;54.30;;;;;;5052481;28;20081;-69
2023/08/05 11:23:45;;;;;;;90.95;26.67;;;29.20;53.60;;;;;;5058750;28;20085;-63
2023/08/05 11:26:12;;;;;;;92.55;27.52;;;29.10;53.50;;;;;;5056781;28;20089;-63
2023/08/05 11:28:45;;;;;;;79.90;34.15;;;29.10;54.50;;;;;;5059528;28;20080;-64
2023/08/05 11:31:25;;;;;;;103.65;44.17;;;29.10;55.30;;;;;;5053956;28;20564;-64
2023/08/05 11:33:52;;;;;;;102.15;41.50;;;29.00;56.20;;;;;;5058111;28;20546;-66
2023/08/05 11:36:29;;;;;;;108.30;40.75;;;28.90;56.80;;;;;;5054767;28;20448;-66
2023/08/05 11:39:00;;;;;;;114.68;43.63;;;28.80;57.30;;;;;;5062957;28;20092;-64
2023/08/05 11:41:27;;;;;;;115.22;45.03;;;28.80;58.50;;;;;;5059600;28;20116;-64
2023/08/05 11:43:55;;;;;;;106.50;45.08;;;28.70;58.40;;;;;;5062107;28;20239;-66
2023/08/05 11:46:26;;;;;;;104.82;43.05;;;28.70;58.60;;;;;;5057058;28;20176;-65
2023/08/05 11:49:14;;;;;;;97.30;39.53;;;28.80;58.80;;;;;;5056365;28;20169;-65
2023/08/05 11:51:51;;;;;;;90.10;36.25;;;28.80;58.70;;;;;;5062150;28;20108;-66
2023/08/05 11:54:28;;;;;;;95.97;32.55;;;28.70;61.20;;;;;;5051049;28;20076;-64
2023/08/05 11:56:55;;;;;;;98.30;31.63;;;28.70;59.80;;;;;;5048751;28;20551;-65
2023/08/05 11:59:37;;;;;;;76.25;29.20;;;28.60;60.00;;;;;;5051911;28;20078;-65
2023/08/05 12:02:04;;;;;;;81.30;28.25;;;28.50;60.80;;;;;;5054305;28;20077;-64
2023/08/05 12:04:30;;;;;;;98.70;29.33;;;28.40;62.10;;;;;;5054381;28;20588;-63
2023/08/05 12:06:57;;;;;;;77.72;24.55;;;28.40;62.00;;;;;;5055930;28;20085;-64
2023/08/05 12:09:24;;;;;;;83.45;25.85;;;28.40;61.80;;;;;;5063432;28;20108;-63
2023/08/05 12:11:56;;;;;;;80.10;24.92;;;28.30;62.00;;;;;;5061258;28;20088;-65
2023/08/05 12:14:25;;;;;;;78.35;23.55;;;28.20;62.30;;;;;;5059411;28;20167;-64
2023/08/05 12:16:55;;;;;;;86.47;24.90;;;28.20;62.80;;;;;;5063434;28;20136;-64
2023/08/05 12:19:21;;;;;;;80.25;21.92;;;28.20;63.30;;;;;;5057543;28;20089;-63
2023/08/05 12:21:48;;;;;;;81.57;23.08;;;28.10;63.40;;;;;;5061824;28;20073;-64
2023/08/05 12:24:14;;;;;;;74.47;22.10;;;28.10;64.20;;;;;;5061333;28;20100;-64
2023/08/05 12:26:41;;;;;;;77.05;21.60;;;28.10;64.80;;;;;;5064397;28;20122;-66
2023/08/05 12:29:07;;;;;;;77.57;21.80;;;28.10;65.30;;;;;;5067760;28;20515;-63
2023/08/05 12:31:34;;;;;;;78.53;22.45;;;28.00;65.70;;;;;;5067143;28;20134;-63
2023/08/05 12:34:01;;;;;;;73.43;21.65;;;28.00;66.70;;;;;;5060831;28;20567;-65